sensor_id;sensor_type;location;lat;lon;timestamp;P1;durP1;ratioP1;P2;durP2;ratioP2
19867;SDS011;10096;51.112;6.776;2024-03-22T00:00:12;31.27;;;22.52;;
19867;SDS011;10096;51.112;6.776;2024-03-22T00:02:39;35.92;;;22.98;;
19867;SDS011;10096;51.112;6.776;2024-03-22T00:05:08;30.85;;;21.58;;
19867;SDS011;10096;51.112;6.776;2024-03-22T00:07:34;30.08;;;20.42;;
19867;SDS011;10096;51.112;6.776;2024-03-22T00:10:05;32.90;;;21.40;;
19867;SDS011;10096;51.112;6.776;2024-03-22T00:12:34;33.38;;;22.20;;
19867;SDS011;10096;51.112;6.776;2024-03-22T00:15:01;34.55;;;21.73;;
19867;SDS011;10096;51.112;6.776;2024-03-22T00:17:29;30.60;;;21.20;;
19867;SDS011;10096;51.112;6.776;2024-03-22T00:19:59;33.75;;;20.98;;
19867;SDS011;10096;51.112;6.776;2024-03-22T00:22:25;33.55;;;21.23;;
19867;SDS011;10096;51.112;6.776;2024-03-22T00:24:52;32.35;;;21.13;;
19867;SDS011;10096;51.112;6.776;2024-03-22T00:27:18;31.92;;;23.00;;
19867;SDS011;10096;51.112;6.776;2024-03-22T00:29:45;31.50;;;21.25;;
19867;SDS011;10096;51.112;6.776;2024-03-22T00:32:11;39.78;;;21.75;;
19867;SDS011;10096;51.112;6.776;2024-03-22T00:34:38;28.92;;;20.35;;
19867;SDS011;10096;51.112;6.776;2024-03-22T00:37:05;31.35;;;20.05;;
19867;SDS011;10096;51.112;6.776;2024-03-22T00:39:33;32.33;;;20.52;;
19867;SDS011;10096;51.112;6.776;2024-03-22T00:42:01;35.20;;;22.00;;
19867;SDS011;10096;51.112;6.776;2024-03-22T00:44:29;30.73;;;20.98;;
19867;SDS011;10096;51.112;6.776;2024-03-22T00:46:56;31.58;;;20.63;;
19867;SDS011;10096;51.112;6.776;2024-03-22T00:49:23;32.97;;;21.30;;
19867;SDS011;10096;51.112;6.776;2024-03-22T00:51:49;35.00;;;21.35;;
19867;SDS011;10096;51.112;6.776;2024-03-22T00:54:23;30.75;;;20.17;;
19867;SDS011;10096;51.112;6.776;2024-03-22T00:56:50;33.58;;;18.88;;
19867;SDS011;10096;51.112;6.776;2024-03-22T00:59:17;30.45;;;19.40;;
19867;SDS011;10096;51.112;6.776;2024-03-22T01:01:43;29.20;;;18.88;;
19867;SDS011;10096;51.112;6.776;2024-03-22T01:04:11;26.48;;;17.45;;
19867;SDS011;10096;51.112;6.776;2024-03-22T01:06:37;29.30;;;17.75;;
19867;SDS011;10096;51.112;6.776;2024-03-22T01:09:05;28.48;;;17.30;;
19867;SDS011;10096;51.112;6.776;2024-03-22T01:11:37;27.00;;;18.05;;
19867;SDS011;10096;51.112;6.776;2024-03-22T01:14:05;24.95;;;16.85;;
19867;SDS011;10096;51.112;6.776;2024-03-22T01:16:33;28.40;;;18.70;;
19867;SDS011;10096;51.112;6.776;2024-03-22T01:19:02;25.33;;;16.98;;
19867;SDS011;10096;51.112;6.776;2024-03-22T01:21:28;24.42;;;16.92;;
19867;SDS011;10096;51.112;6.776;2024-03-22T01:23:58;24.67;;;17.10;;
19867;SDS011;10096;51.112;6.776;2024-03-22T01:26:25;28.15;;;17.90;;
19867;SDS011;10096;51.112;6.776;2024-03-22T01:28:54;26.27;;;16.95;;
19867;SDS011;10096;51.112;6.776;2024-03-22T01:31:20;23.20;;;16.17;;
19867;SDS011;10096;51.112;6.776;2024-03-22T01:33:47;26.73;;;17.27;;
19867;SDS011;10096;51.112;6.776;2024-03-22T01:36:13;28.55;;;17.08;;
19867;SDS011;10096;51.112;6.776;2024-03-22T01:38:40;24.48;;;16.35;;
19867;SDS011;10096;51.112;6.776;2024-03-22T01:41:06;25.40;;;16.80;;
19867;SDS011;10096;51.112;6.776;2024-03-22T01:43:33;26.40;;;15.68;;
19867;SDS011;10096;51.112;6.776;2024-03-22T01:46:05;25.02;;;15.57;;
19867;SDS011;10096;51.112;6.776;2024-03-22T01:48:36;21.73;;;14.73;;
19867;SDS011;10096;51.112;6.776;2024-03-22T01:51:02;21.27;;;14.82;;
19867;SDS011;10096;51.112;6.776;2024-03-22T01:53:33;24.13;;;15.65;;
19867;SDS011;10096;51.112;6.776;2024-03-22T01:56:01;19.58;;;14.07;;
19867;SDS011;10096;51.112;6.776;2024-03-22T01:58:28;23.15;;;15.10;;
19867;SDS011;10096;51.112;6.776;2024-03-22T02:00:55;22.15;;;14.75;;
19867;SDS011;10096;51.112;6.776;2024-03-22T02:03:26;24.00;;;15.05;;
19867;SDS011;10096;51.112;6.776;2024-03-22T02:05:52;22.52;;;14.95;;
19867;SDS011;10096;51.112;6.776;2024-03-22T02:08:18;23.55;;;15.32;;
19867;SDS011;10096;51.112;6.776;2024-03-22T02:10:44;23.25;;;14.82;;
19867;SDS011;10096;51.112;6.776;2024-03-22T02:13:12;20.25;;;14.13;;
19867;SDS011;10096;51.112;6.776;2024-03-22T02:15:48;21.00;;;14.13;;
19867;SDS011;10096;51.112;6.776;2024-03-22T02:18:16;19.30;;;13.60;;
19867;SDS011;10096;51.112;6.776;2024-03-22T02:20:46;19.92;;;14.18;;
19867;SDS011;10096;51.112;6.776;2024-03-22T02:23:12;25.05;;;14.73;;
19867;SDS011;10096;51.112;6.776;2024-03-22T02:25:43;21.30;;;14.65;;
19867;SDS011;10096;51.112;6.776;2024-03-22T02:28:09;19.73;;;14.35;;
19867;SDS011;10096;51.112;6.776;2024-03-22T02:30:41;22.13;;;13.85;;
19867;SDS011;10096;51.112;6.776;2024-03-22T02:33:08;18.90;;;13.48;;
19867;SDS011;10096;51.112;6.776;2024-03-22T02:35:35;19.50;;;12.95;;
19867;SDS011;10096;51.112;6.776;2024-03-22T02:38:03;20.08;;;12.68;;
19867;SDS011;10096;51.112;6.776;2024-03-22T02:40:30;19.60;;;14.00;;
19867;SDS011;10096;51.112;6.776;2024-03-22T02:42:59;17.77;;;13.35;;
19867;SDS011;10096;51.112;6.776;2024-03-22T02:45:30;17.23;;;11.93;;
19867;SDS011;10096;51.112;6.776;2024-03-22T02:47:58;19.77;;;13.43;;
19867;SDS011;10096;51.112;6.776;2024-03-22T02:50:31;19.70;;;13.85;;
19867;SDS011;10096;51.112;6.776;2024-03-22T02:52:58;18.15;;;12.95;;
19867;SDS011;10096;51.112;6.776;2024-03-22T02:55:30;19.25;;;13.05;;
19867;SDS011;10096;51.112;6.776;2024-03-22T02:57:57;20.95;;;13.15;;
19867;SDS011;10096;51.112;6.776;2024-03-22T03:00:30;18.42;;;12.75;;
19867;SDS011;10096;51.112;6.776;2024-03-22T03:02:59;18.30;;;12.52;;
19867;SDS011;10096;51.112;6.776;2024-03-22T03:05:38;18.10;;;13.00;;
19867;SDS011;10096;51.112;6.776;2024-03-22T03:08:06;17.60;;;12.07;;
19867;SDS011;10096;51.112;6.776;2024-03-22T03:10:34;17.15;;;11.50;;
19867;SDS011;10096;51.112;6.776;2024-03-22T03:13:01;19.92;;;12.82;;
19867;SDS011;10096;51.112;6.776;2024-03-22T03:15:29;17.33;;;12.48;;
19867;SDS011;10096;51.112;6.776;2024-03-22T03:17:57;19.52;;;13.15;;
19867;SDS011;10096;51.112;6.776;2024-03-22T03:20:25;17.73;;;11.77;;
19867;SDS011;10096;51.112;6.776;2024-03-22T03:22:52;17.40;;;12.25;;
19867;SDS011;10096;51.112;6.776;2024-03-22T03:25:19;18.63;;;12.43;;
19867;SDS011;10096;51.112;6.776;2024-03-22T03:27:44;19.70;;;12.95;;
19867;SDS011;10096;51.112;6.776;2024-03-22T03:30:19;17.40;;;11.80;;
19867;SDS011;10096;51.112;6.776;2024-03-22T03:32:49;18.33;;;11.85;;
19867;SDS011;10096;51.112;6.776;2024-03-22T03:35:18;16.92;;;11.23;;
19867;SDS011;10096;51.112;6.776;2024-03-22T03:37:45;17.95;;;11.90;;
19867;SDS011;10096;51.112;6.776;2024-03-22T03:40:13;16.75;;;11.70;;
19867;SDS011;10096;51.112;6.776;2024-03-22T03:42:40;17.08;;;12.02;;
19867;SDS011;10096;51.112;6.776;2024-03-22T03:45:07;17.17;;;11.75;;
19867;SDS011;10096;51.112;6.776;2024-03-22T03:47:36;13.27;;;10.63;;
19867;SDS011;10096;51.112;6.776;2024-03-22T03:50:03;17.45;;;12.02;;
19867;SDS011;10096;51.112;6.776;2024-03-22T03:52:29;16.33;;;11.63;;
19867;SDS011;10096;51.112;6.776;2024-03-22T03:54:56;15.45;;;10.60;;
19867;SDS011;10096;51.112;6.776;2024-03-22T03:57:25;16.58;;;11.63;;
19867;SDS011;10096;51.112;6.776;2024-03-22T03:59:57;14.57;;;10.43;;
19867;SDS011;10096;51.112;6.776;2024-03-22T04:02:23;16.63;;;12.27;;
19867;SDS011;10096;51.112;6.776;2024-03-22T04:04:56;16.15;;;10.93;;
19867;SDS011;10096;51.112;6.776;2024-03-22T04:07:23;14.27;;;11.20;;
19867;SDS011;10096;51.112;6.776;2024-03-22T04:09:54;16.25;;;11.82;;
19867;SDS011;10096;51.112;6.776;2024-03-22T04:12:22;18.60;;;12.00;;
19867;SDS011;10096;51.112;6.776;2024-03-22T04:14:51;15.05;;;11.80;;
19867;SDS011;10096;51.112;6.776;2024-03-22T04:17:18;20.50;;;12.02;;
19867;SDS011;10096;51.112;6.776;2024-03-22T04:19:45;17.20;;;12.15;;
19867;SDS011;10096;51.112;6.776;2024-03-22T04:22:16;18.27;;;13.30;;
19867;SDS011;10096;51.112;6.776;2024-03-22T04:24:43;15.50;;;12.23;;
19867;SDS011;10096;51.112;6.776;2024-03-22T04:27:09;16.95;;;12.57;;
19867;SDS011;10096;51.112;6.776;2024-03-22T04:29:38;17.38;;;12.55;;
19867;SDS011;10096;51.112;6.776;2024-03-22T04:32:06;16.77;;;12.18;;
19867;SDS011;10096;51.112;6.776;2024-03-22T04:34:33;17.90;;;11.85;;
19867;SDS011;10096;51.112;6.776;2024-03-22T04:36:59;18.05;;;12.43;;
19867;SDS011;10096;51.112;6.776;2024-03-22T04:39:29;17.75;;;13.13;;
19867;SDS011;10096;51.112;6.776;2024-03-22T04:41:56;18.67;;;13.40;;
19867;SDS011;10096;51.112;6.776;2024-03-22T04:44:23;16.58;;;12.05;;
19867;SDS011;10096;51.112;6.776;2024-03-22T04:46:51;16.58;;;12.10;;
19867;SDS011;10096;51.112;6.776;2024-03-22T04:49:17;17.98;;;13.90;;
19867;SDS011;10096;51.112;6.776;2024-03-22T04:51:44;17.58;;;13.38;;
19867;SDS011;10096;51.112;6.776;2024-03-22T04:54:10;19.95;;;13.02;;
19867;SDS011;10096;51.112;6.776;2024-03-22T04:56:38;17.33;;;12.40;;
19867;SDS011;10096;51.112;6.776;2024-03-22T04:59:05;16.23;;;12.50;;
19867;SDS011;10096;51.112;6.776;2024-03-22T05:01:32;18.98;;;13.32;;
19867;SDS011;10096;51.112;6.776;2024-03-22T05:03:59;16.17;;;12.75;;
19867;SDS011;10096;51.112;6.776;2024-03-22T05:06:26;16.30;;;12.70;;
19867;SDS011;10096;51.112;6.776;2024-03-22T05:08:56;15.40;;;12.00;;
19867;SDS011;10096;51.112;6.776;2024-03-22T05:11:23;15.13;;;12.20;;
19867;SDS011;10096;51.112;6.776;2024-03-22T05:13:53;20.65;;;13.10;;
19867;SDS011;10096;51.112;6.776;2024-03-22T05:16:20;18.45;;;13.32;;
19867;SDS011;10096;51.112;6.776;2024-03-22T05:18:48;16.90;;;12.68;;
19867;SDS011;10096;51.112;6.776;2024-03-22T05:21:15;17.25;;;13.48;;
19867;SDS011;10096;51.112;6.776;2024-03-22T05:23:47;16.58;;;13.27;;
19867;SDS011;10096;51.112;6.776;2024-03-22T05:26:14;16.35;;;12.88;;
19867;SDS011;10096;51.112;6.776;2024-03-22T05:28:40;17.40;;;13.77;;
19867;SDS011;10096;51.112;6.776;2024-03-22T05:31:09;16.70;;;13.27;;
19867;SDS011;10096;51.112;6.776;2024-03-22T05:33:35;18.45;;;13.05;;
19867;SDS011;10096;51.112;6.776;2024-03-22T05:36:03;20.90;;;14.27;;
19867;SDS011;10096;51.112;6.776;2024-03-22T05:38:33;19.33;;;13.93;;
19867;SDS011;10096;51.112;6.776;2024-03-22T05:41:07;17.10;;;14.32;;
19867;SDS011;10096;51.112;6.776;2024-03-22T05:43:37;16.98;;;13.85;;
19867;SDS011;10096;51.112;6.776;2024-03-22T05:46:04;19.88;;;14.82;;
19867;SDS011;10096;51.112;6.776;2024-03-22T05:48:39;19.67;;;15.73;;
19867;SDS011;10096;51.112;6.776;2024-03-22T05:51:05;18.27;;;14.95;;
19867;SDS011;10096;51.112;6.776;2024-03-22T05:53:36;22.75;;;15.98;;
19867;SDS011;10096;51.112;6.776;2024-03-22T05:56:03;23.58;;;16.48;;
19867;SDS011;10096;51.112;6.776;2024-03-22T05:58:30;21.42;;;16.45;;
19867;SDS011;10096;51.112;6.776;2024-03-22T06:00:58;22.20;;;17.60;;
19867;SDS011;10096;51.112;6.776;2024-03-22T06:03:24;22.00;;;17.42;;
19867;SDS011;10096;51.112;6.776;2024-03-22T06:05:52;20.48;;;17.33;;
19867;SDS011;10096;51.112;6.776;2024-03-22T06:08:24;22.30;;;18.00;;
19867;SDS011;10096;51.112;6.776;2024-03-22T06:10:56;23.45;;;18.35;;
19867;SDS011;10096;51.112;6.776;2024-03-22T06:13:22;21.65;;;18.15;;
19867;SDS011;10096;51.112;6.776;2024-03-22T06:15:50;22.90;;;18.30;;
19867;SDS011;10096;51.112;6.776;2024-03-22T06:18:17;23.08;;;18.83;;
19867;SDS011;10096;51.112;6.776;2024-03-22T06:20:48;25.38;;;19.52;;
19867;SDS011;10096;51.112;6.776;2024-03-22T06:23:15;24.60;;;20.80;;
19867;SDS011;10096;51.112;6.776;2024-03-22T06:25:50;24.50;;;19.65;;
19867;SDS011;10096;51.112;6.776;2024-03-22T06:28:17;26.45;;;20.27;;
19867;SDS011;10096;51.112;6.776;2024-03-22T06:30:44;26.30;;;21.85;;
19867;SDS011;10096;51.112;6.776;2024-03-22T06:33:10;29.25;;;20.98;;
19867;SDS011;10096;51.112;6.776;2024-03-22T06:35:37;24.77;;;21.75;;
19867;SDS011;10096;51.112;6.776;2024-03-22T06:38:03;30.92;;;23.88;;
19867;SDS011;10096;51.112;6.776;2024-03-22T06:40:36;28.90;;;23.08;;
19867;SDS011;10096;51.112;6.776;2024-03-22T06:43:02;28.75;;;22.42;;
19867;SDS011;10096;51.112;6.776;2024-03-22T06:45:29;28.52;;;22.15;;
19867;SDS011;10096;51.112;6.776;2024-03-22T06:47:55;26.88;;;21.10;;
19867;SDS011;10096;51.112;6.776;2024-03-22T06:50:22;26.75;;;21.70;;
19867;SDS011;10096;51.112;6.776;2024-03-22T06:52:52;30.08;;;22.42;;
19867;SDS011;10096;51.112;6.776;2024-03-22T06:55:19;27.95;;;22.77;;
19867;SDS011;10096;51.112;6.776;2024-03-22T06:57:47;30.33;;;22.42;;
19867;SDS011;10096;51.112;6.776;2024-03-22T07:00:15;26.50;;;22.05;;
19867;SDS011;10096;51.112;6.776;2024-03-22T07:02:42;29.33;;;22.85;;
19867;SDS011;10096;51.112;6.776;2024-03-22T07:05:10;27.13;;;22.95;;
19867;SDS011;10096;51.112;6.776;2024-03-22T07:07:37;31.30;;;23.90;;
19867;SDS011;10096;51.112;6.776;2024-03-22T07:10:08;26.45;;;22.92;;
19867;SDS011;10096;51.112;6.776;2024-03-22T07:12:37;25.70;;;21.20;;
19867;SDS011;10096;51.112;6.776;2024-03-22T07:15:07;28.65;;;23.20;;
19867;SDS011;10096;51.112;6.776;2024-03-22T07:17:34;26.92;;;22.25;;
19867;SDS011;10096;51.112;6.776;2024-03-22T07:20:01;29.92;;;24.17;;
19867;SDS011;10096;51.112;6.776;2024-03-22T07:22:28;26.35;;;22.92;;
19867;SDS011;10096;51.112;6.776;2024-03-22T07:24:55;33.58;;;24.58;;
19867;SDS011;10096;51.112;6.776;2024-03-22T07:27:25;29.17;;;23.48;;
19867;SDS011;10096;51.112;6.776;2024-03-22T07:29:54;33.72;;;25.35;;
19867;SDS011;10096;51.112;6.776;2024-03-22T07:32:21;28.50;;;23.83;;
19867;SDS011;10096;51.112;6.776;2024-03-22T07:34:48;29.90;;;22.83;;
19867;SDS011;10096;51.112;6.776;2024-03-22T07:37:17;31.35;;;24.98;;
19867;SDS011;10096;51.112;6.776;2024-03-22T07:39:47;28.67;;;22.33;;
19867;SDS011;10096;51.112;6.776;2024-03-22T07:42:14;27.45;;;21.70;;
19867;SDS011;10096;51.112;6.776;2024-03-22T07:44:41;24.20;;;20.98;;
19867;SDS011;10096;51.112;6.776;2024-03-22T07:47:06;25.85;;;20.80;;
19867;SDS011;10096;51.112;6.776;2024-03-22T07:49:39;24.88;;;20.08;;
19867;SDS011;10096;51.112;6.776;2024-03-22T07:52:05;28.55;;;20.45;;
19867;SDS011;10096;51.112;6.776;2024-03-22T07:54:31;24.05;;;19.70;;
19867;SDS011;10096;51.112;6.776;2024-03-22T07:56:57;25.55;;;20.92;;
19867;SDS011;10096;51.112;6.776;2024-03-22T07:59:24;25.30;;;18.35;;
19867;SDS011;10096;51.112;6.776;2024-03-22T08:01:50;21.35;;;17.27;;
19867;SDS011;10096;51.112;6.776;2024-03-22T08:04:17;18.48;;;16.48;;
19867;SDS011;10096;51.112;6.776;2024-03-22T08:06:45;19.52;;;16.60;;
19867;SDS011;10096;51.112;6.776;2024-03-22T08:09:12;18.10;;;15.82;;
19867;SDS011;10096;51.112;6.776;2024-03-22T08:11:38;19.70;;;16.00;;
19867;SDS011;10096;51.112;6.776;2024-03-22T08:14:09;16.58;;;14.65;;
19867;SDS011;10096;51.112;6.776;2024-03-22T08:16:35;18.40;;;15.35;;
19867;SDS011;10096;51.112;6.776;2024-03-22T08:19:02;17.23;;;14.95;;
19867;SDS011;10096;51.112;6.776;2024-03-22T08:21:34;18.23;;;14.68;;
19867;SDS011;10096;51.112;6.776;2024-03-22T08:24:16;18.02;;;15.18;;
19867;SDS011;10096;51.112;6.776;2024-03-22T08:26:44;18.42;;;14.75;;
19867;SDS011;10096;51.112;6.776;2024-03-22T08:29:12;15.85;;;14.25;;
19867;SDS011;10096;51.112;6.776;2024-03-22T08:31:42;17.83;;;15.18;;
19867;SDS011;10096;51.112;6.776;2024-03-22T08:34:08;18.67;;;15.27;;
19867;SDS011;10096;51.112;6.776;2024-03-22T08:36:35;17.35;;;15.25;;
19867;SDS011;10096;51.112;6.776;2024-03-22T08:39:01;17.08;;;14.63;;
19867;SDS011;10096;51.112;6.776;2024-03-22T08:41:31;16.13;;;14.23;;
19867;SDS011;10096;51.112;6.776;2024-03-22T08:43:57;19.88;;;15.63;;
19867;SDS011;10096;51.112;6.776;2024-03-22T08:46:24;16.20;;;14.25;;
19867;SDS011;10096;51.112;6.776;2024-03-22T08:48:51;18.52;;;15.38;;
19867;SDS011;10096;51.112;6.776;2024-03-22T08:51:21;19.05;;;14.98;;
19867;SDS011;10096;51.112;6.776;2024-03-22T08:53:50;18.50;;;15.18;;
19867;SDS011;10096;51.112;6.776;2024-03-22T08:56:17;17.15;;;15.00;;
19867;SDS011;10096;51.112;6.776;2024-03-22T08:58:46;20.15;;;15.55;;
19867;SDS011;10096;51.112;6.776;2024-03-22T09:01:16;18.65;;;15.95;;
19867;SDS011;10096;51.112;6.776;2024-03-22T09:03:43;16.77;;;14.15;;
19867;SDS011;10096;51.112;6.776;2024-03-22T09:06:12;16.20;;;13.85;;
19867;SDS011;10096;51.112;6.776;2024-03-22T09:08:37;17.55;;;14.18;;
19867;SDS011;10096;51.112;6.776;2024-03-22T09:11:05;18.17;;;13.52;;
19867;SDS011;10096;51.112;6.776;2024-03-22T09:13:32;20.85;;;14.52;;
19867;SDS011;10096;51.112;6.776;2024-03-22T09:16:05;19.58;;;15.23;;
19867;SDS011;10096;51.112;6.776;2024-03-22T09:18:36;17.52;;;13.27;;
19867;SDS011;10096;51.112;6.776;2024-03-22T09:21:04;20.23;;;14.90;;
19867;SDS011;10096;51.112;6.776;2024-03-22T09:23:34;21.15;;;14.50;;
19867;SDS011;10096;51.112;6.776;2024-03-22T09:26:02;14.70;;;13.25;;
19867;SDS011;10096;51.112;6.776;2024-03-22T09:28:30;17.75;;;14.43;;
19867;SDS011;10096;51.112;6.776;2024-03-22T09:30:56;19.63;;;13.25;;
19867;SDS011;10096;51.112;6.776;2024-03-22T09:33:25;15.57;;;13.25;;
19867;SDS011;10096;51.112;6.776;2024-03-22T09:35:54;17.58;;;13.23;;
19867;SDS011;10096;51.112;6.776;2024-03-22T09:38:23;14.70;;;12.73;;
19867;SDS011;10096;51.112;6.776;2024-03-22T09:41:00;14.68;;;13.18;;
19867;SDS011;10096;51.112;6.776;2024-03-22T09:43:31;15.73;;;12.85;;
19867;SDS011;10096;51.112;6.776;2024-03-22T09:45:59;15.63;;;13.07;;
19867;SDS011;10096;51.112;6.776;2024-03-22T09:48:36;14.52;;;13.02;;
19867;SDS011;10096;51.112;6.776;2024-03-22T09:51:02;17.60;;;13.93;;
19867;SDS011;10096;51.112;6.776;2024-03-22T09:53:31;16.08;;;12.48;;
19867;SDS011;10096;51.112;6.776;2024-03-22T09:55:58;17.65;;;13.70;;
19867;SDS011;10096;51.112;6.776;2024-03-22T09:58:27;17.75;;;12.90;;
19867;SDS011;10096;51.112;6.776;2024-03-22T10:00:53;18.13;;;13.57;;
19867;SDS011;10096;51.112;6.776;2024-03-22T10:03:25;17.77;;;13.27;;
19867;SDS011;10096;51.112;6.776;2024-03-22T10:05:52;19.55;;;14.15;;
19867;SDS011;10096;51.112;6.776;2024-03-22T10:08:19;20.70;;;14.15;;
19867;SDS011;10096;51.112;6.776;2024-03-22T10:10:45;17.55;;;13.65;;
19867;SDS011;10096;51.112;6.776;2024-03-22T10:13:14;16.05;;;13.75;;
19867;SDS011;10096;51.112;6.776;2024-03-22T10:15:41;18.25;;;13.23;;
19867;SDS011;10096;51.112;6.776;2024-03-22T10:18:09;18.52;;;14.55;;
19867;SDS011;10096;51.112;6.776;2024-03-22T10:20:36;19.48;;;13.82;;
19867;SDS011;10096;51.112;6.776;2024-03-22T10:23:04;19.92;;;14.55;;
19867;SDS011;10096;51.112;6.776;2024-03-22T10:25:32;16.42;;;14.00;;
19867;SDS011;10096;51.112;6.776;2024-03-22T10:28:00;16.17;;;14.48;;
19867;SDS011;10096;51.112;6.776;2024-03-22T10:30:26;17.52;;;14.52;;
19867;SDS011;10096;51.112;6.776;2024-03-22T10:32:55;22.90;;;17.02;;
19867;SDS011;10096;51.112;6.776;2024-03-22T10:35:21;18.13;;;13.70;;
19867;SDS011;10096;51.112;6.776;2024-03-22T10:37:51;19.00;;;14.73;;
19867;SDS011;10096;51.112;6.776;2024-03-22T10:40:20;16.20;;;13.77;;
19867;SDS011;10096;51.112;6.776;2024-03-22T10:42:47;16.63;;;13.82;;
19867;SDS011;10096;51.112;6.776;2024-03-22T10:45:13;18.20;;;14.57;;
19867;SDS011;10096;51.112;6.776;2024-03-22T10:47:40;18.42;;;15.75;;
19867;SDS011;10096;51.112;6.776;2024-03-22T10:50:07;17.95;;;15.43;;
19867;SDS011;10096;51.112;6.776;2024-03-22T10:52:48;18.98;;;15.18;;
19867;SDS011;10096;51.112;6.776;2024-03-22T10:55:21;18.95;;;15.77;;
19867;SDS011;10096;51.112;6.776;2024-03-22T10:57:58;18.08;;;16.15;;
19867;SDS011;10096;51.112;6.776;2024-03-22T11:00:27;18.33;;;15.77;;
19867;SDS011;10096;51.112;6.776;2024-03-22T11:03:01;19.17;;;16.33;;
19867;SDS011;10096;51.112;6.776;2024-03-22T11:05:27;18.02;;;16.13;;
19867;SDS011;10096;51.112;6.776;2024-03-22T11:08:04;17.27;;;15.43;;
19867;SDS011;10096;51.112;6.776;2024-03-22T11:10:48;18.08;;;15.10;;
19867;SDS011;10096;51.112;6.776;2024-03-22T11:13:16;20.15;;;14.95;;
19867;SDS011;10096;51.112;6.776;2024-03-22T11:15:47;17.13;;;15.30;;
19867;SDS011;10096;51.112;6.776;2024-03-22T11:18:14;19.98;;;17.20;;
19867;SDS011;10096;51.112;6.776;2024-03-22T11:20:42;19.77;;;16.98;;
19867;SDS011;10096;51.112;6.776;2024-03-22T11:23:12;20.17;;;18.00;;
19867;SDS011;10096;51.112;6.776;2024-03-22T11:25:42;20.77;;;18.58;;
19867;SDS011;10096;51.112;6.776;2024-03-22T11:28:09;25.02;;;19.15;;
19867;SDS011;10096;51.112;6.776;2024-03-22T11:30:35;21.48;;;19.20;;
19867;SDS011;10096;51.112;6.776;2024-03-22T11:33:03;20.42;;;18.23;;
19867;SDS011;10096;51.112;6.776;2024-03-22T11:35:30;21.23;;;18.55;;
19867;SDS011;10096;51.112;6.776;2024-03-22T11:37:58;22.17;;;19.65;;
19867;SDS011;10096;51.112;6.776;2024-03-22T11:40:25;21.55;;;18.45;;
19867;SDS011;10096;51.112;6.776;2024-03-22T11:42:54;21.90;;;18.52;;
19867;SDS011;10096;51.112;6.776;2024-03-22T11:45:21;20.98;;;18.20;;
19867;SDS011;10096;51.112;6.776;2024-03-22T11:47:52;20.42;;;18.30;;
19867;SDS011;10096;51.112;6.776;2024-03-22T11:50:18;21.55;;;18.23;;
19867;SDS011;10096;51.112;6.776;2024-03-22T11:52:50;22.20;;;17.77;;
19867;SDS011;10096;51.112;6.776;2024-03-22T11:55:18;19.95;;;17.40;;
19867;SDS011;10096;51.112;6.776;2024-03-22T11:57:56;20.00;;;17.67;;
19867;SDS011;10096;51.112;6.776;2024-03-22T12:00:26;20.63;;;18.38;;
19867;SDS011;10096;51.112;6.776;2024-03-22T12:02:56;20.50;;;18.30;;
19867;SDS011;10096;51.112;6.776;2024-03-22T12:05:23;20.17;;;18.13;;
19867;SDS011;10096;51.112;6.776;2024-03-22T12:07:51;19.50;;;16.83;;
19867;SDS011;10096;51.112;6.776;2024-03-22T12:10:21;19.15;;;17.15;;
19867;SDS011;10096;51.112;6.776;2024-03-22T12:12:51;20.10;;;17.70;;
19867;SDS011;10096;51.112;6.776;2024-03-22T12:15:24;21.20;;;18.17;;
19867;SDS011;10096;51.112;6.776;2024-03-22T12:17:51;19.10;;;17.10;;
19867;SDS011;10096;51.112;6.776;2024-03-22T12:20:18;20.30;;;17.60;;
19867;SDS011;10096;51.112;6.776;2024-03-22T12:22:49;22.30;;;18.65;;
19867;SDS011;10096;51.112;6.776;2024-03-22T12:25:15;18.42;;;16.20;;
19867;SDS011;10096;51.112;6.776;2024-03-22T12:27:42;20.23;;;15.90;;
19867;SDS011;10096;51.112;6.776;2024-03-22T12:30:11;18.30;;;15.25;;
19867;SDS011;10096;51.112;6.776;2024-03-22T12:32:38;16.88;;;15.10;;
19867;SDS011;10096;51.112;6.776;2024-03-22T12:35:04;18.30;;;15.95;;
19867;SDS011;10096;51.112;6.776;2024-03-22T12:37:33;18.23;;;16.35;;
19867;SDS011;10096;51.112;6.776;2024-03-22T12:39:59;18.02;;;16.13;;
19867;SDS011;10096;51.112;6.776;2024-03-22T12:42:34;21.30;;;16.30;;
19867;SDS011;10096;51.112;6.776;2024-03-22T12:45:00;25.05;;;17.30;;
19867;SDS011;10096;51.112;6.776;2024-03-22T12:47:29;19.45;;;15.90;;
19867;SDS011;10096;51.112;6.776;2024-03-22T12:49:56;19.13;;;15.25;;
19867;SDS011;10096;51.112;6.776;2024-03-22T12:52:28;21.95;;;17.67;;
19867;SDS011;10096;51.112;6.776;2024-03-22T12:54:55;16.58;;;14.95;;
19867;SDS011;10096;51.112;6.776;2024-03-22T12:57:23;18.30;;;16.40;;
19867;SDS011;10096;51.112;6.776;2024-03-22T12:59:49;17.20;;;15.30;;
19867;SDS011;10096;51.112;6.776;2024-03-22T13:02:17;17.70;;;15.68;;
19867;SDS011;10096;51.112;6.776;2024-03-22T13:04:46;19.48;;;15.38;;
19867;SDS011;10096;51.112;6.776;2024-03-22T13:07:13;20.70;;;14.63;;
19867;SDS011;10096;51.112;6.776;2024-03-22T13:09:40;19.67;;;14.07;;
19867;SDS011;10096;51.112;6.776;2024-03-22T13:12:11;15.65;;;13.90;;
19867;SDS011;10096;51.112;6.776;2024-03-22T13:14:37;19.83;;;15.27;;
19867;SDS011;10096;51.112;6.776;2024-03-22T13:17:05;19.38;;;14.10;;
19867;SDS011;10096;51.112;6.776;2024-03-22T13:19:32;20.17;;;14.50;;
19867;SDS011;10096;51.112;6.776;2024-03-22T13:22:04;17.20;;;14.68;;
19867;SDS011;10096;51.112;6.776;2024-03-22T13:24:32;16.23;;;14.48;;
19867;SDS011;10096;51.112;6.776;2024-03-22T13:27:04;21.00;;;16.73;;
19867;SDS011;10096;51.112;6.776;2024-03-22T13:29:30;17.05;;;13.85;;
19867;SDS011;10096;51.112;6.776;2024-03-22T13:31:58;18.23;;;14.60;;
19867;SDS011;10096;51.112;6.776;2024-03-22T13:34:24;21.17;;;13.80;;
19867;SDS011;10096;51.112;6.776;2024-03-22T13:36:53;15.10;;;12.15;;
19867;SDS011;10096;51.112;6.776;2024-03-22T13:39:25;22.42;;;15.18;;
19867;SDS011;10096;51.112;6.776;2024-03-22T13:42:03;15.68;;;13.45;;
19867;SDS011;10096;51.112;6.776;2024-03-22T13:44:32;16.70;;;12.52;;
19867;SDS011;10096;51.112;6.776;2024-03-22T13:47:00;17.60;;;13.20;;
19867;SDS011;10096;51.112;6.776;2024-03-22T13:49:30;18.15;;;14.25;;
19867;SDS011;10096;51.112;6.776;2024-03-22T13:51:57;14.77;;;12.63;;
19867;SDS011;10096;51.112;6.776;2024-03-22T13:54:27;15.13;;;12.32;;
19867;SDS011;10096;51.112;6.776;2024-03-22T13:56:54;14.52;;;12.73;;
19867;SDS011;10096;51.112;6.776;2024-03-22T13:59:21;13.80;;;12.15;;
19867;SDS011;10096;51.112;6.776;2024-03-22T14:01:48;13.30;;;11.57;;
19867;SDS011;10096;51.112;6.776;2024-03-22T14:04:19;12.88;;;11.60;;
19867;SDS011;10096;51.112;6.776;2024-03-22T14:06:48;13.43;;;11.60;;
19867;SDS011;10096;51.112;6.776;2024-03-22T14:09:16;16.00;;;13.93;;
19867;SDS011;10096;51.112;6.776;2024-03-22T14:11:45;13.20;;;11.85;;
19867;SDS011;10096;51.112;6.776;2024-03-22T14:14:14;12.45;;;10.75;;
19867;SDS011;10096;51.112;6.776;2024-03-22T14:16:44;13.02;;;10.18;;
19867;SDS011;10096;51.112;6.776;2024-03-22T14:19:11;13.32;;;11.15;;
19867;SDS011;10096;51.112;6.776;2024-03-22T14:21:43;14.95;;;11.27;;
19867;SDS011;10096;51.112;6.776;2024-03-22T14:24:12;12.55;;;11.15;;
19867;SDS011;10096;51.112;6.776;2024-03-22T14:26:39;12.93;;;11.32;;